createdAt,value
2017-08-26T00:04:45.931Z,28.07
2017-08-26T00:07:14.171Z,28.00
2017-08-26T00:09:40.474Z,27.00
2017-08-26T00:12:06.684Z,27.63
2017-08-26T00:14:32.865Z,31.43
2017-08-26T00:16:59.008Z,29.67
2017-08-26T00:19:25.144Z,29.20
2017-08-26T00:21:51.430Z,28.77
2017-08-26T00:24:18.427Z,28.10
2017-08-26T00:26:44.670Z,26.80
2017-08-26T00:29:10.821Z,30.83
2017-08-26T00:31:37.101Z,31.10
2017-08-26T00:34:03.310Z,31.50
2017-08-26T00:36:29.519Z,31.60
2017-08-26T00:38:55.676Z,27.87
2017-08-26T00:41:21.838Z,27.73
2017-08-26T00:43:48.120Z,28.80
2017-08-26T00:46:14.268Z,30.63
2017-08-26T00:48:40.524Z,29.60
2017-08-26T00:51:06.756Z,31.83
2017-08-26T00:53:33.925Z,31.77
2017-08-26T00:56:00.058Z,30.13
2017-08-26T00:58:26.256Z,33.23
2017-08-26T01:00:52.554Z,34.33
2017-08-26T01:03:18.735Z,33.37
2017-08-26T01:05:44.891Z,34.90
2017-08-26T01:08:11.051Z,33.00
2017-08-26T01:10:37.262Z,32.77
2017-08-26T01:13:03.630Z,32.30
2017-08-26T01:15:29.817Z,30.10
2017-08-26T01:17:55.953Z,31.30
2017-08-26T01:20:22.200Z,28.80
2017-08-26T01:22:48.414Z,29.40
2017-08-26T01:25:14.632Z,32.13
2017-08-26T01:27:40.807Z,30.80
2017-08-26T01:30:06.990Z,30.13
2017-08-26T01:32:33.112Z,30.80
2017-08-26T01:34:59.265Z,28.47
2017-08-26T01:37:25.473Z,28.67
2017-08-26T01:39:51.606Z,27.70
2017-08-26T01:42:17.811Z,28.93
2017-08-26T01:44:43.938Z,28.60
2017-08-26T01:47:10.139Z,27.90
2017-08-26T01:49:36.360Z,25.13
2017-08-26T01:52:02.590Z,25.83
2017-08-26T01:54:28.776Z,24.10
2017-08-26T01:56:54.953Z,24.77
2017-08-26T01:59:21.078Z,26.30
2017-08-26T02:01:47.325Z,24.10
2017-08-26T02:04:19.601Z,25.30
2017-08-26T02:06:51.872Z,26.00
2017-08-26T02:09:24.247Z,26.40
2017-08-26T02:11:56.643Z,27.20
2017-08-26T02:14:29.177Z,25.37
2017-08-26T02:17:01.556Z,24.40
2017-08-26T02:19:33.937Z,23.73
2017-08-26T02:22:06.147Z,26.10
2017-08-26T02:24:38.559Z,24.97
2017-08-26T02:27:10.876Z,25.10
2017-08-26T02:29:43.299Z,24.20
2017-08-26T02:32:15.677Z,22.87
2017-08-26T02:34:48.069Z,23.80
2017-08-26T02:37:20.296Z,23.37
2017-08-26T02:39:52.632Z,25.43
2017-08-26T02:42:24.872Z,24.77
2017-08-26T02:44:57.343Z,26.97
2017-08-26T02:47:29.600Z,25.57
2017-08-26T02:50:01.768Z,25.90
2017-08-26T02:52:34.117Z,25.23
2017-08-26T02:55:06.282Z,25.30
2017-08-26T02:57:38.692Z,26.20
2017-08-26T03:00:11.017Z,26.17
2017-08-26T03:02:43.270Z,26.93
2017-08-26T03:05:15.780Z,25.90
2017-08-26T03:07:48.017Z,26.90
2017-08-26T03:10:20.381Z,26.00
2017-08-26T03:12:52.643Z,26.40
2017-08-26T03:15:24.963Z,27.10
2017-08-26T03:17:57.222Z,25.77
2017-08-26T03:20:29.681Z,25.97
2017-08-26T03:23:02.277Z,23.87
2017-08-26T03:25:34.628Z,24.13
2017-08-26T03:28:06.925Z,23.73
2017-08-26T03:30:39.277Z,23.23
2017-08-26T03:33:11.614Z,23.47
2017-08-26T03:35:43.871Z,22.53
2017-08-26T03:38:16.433Z,23.20
2017-08-26T03:40:48.736Z,20.70
2017-08-26T03:43:21.057Z,22.20
2017-08-26T03:45:53.182Z,23.43
2017-08-26T03:48:25.519Z,22.83
2017-08-26T03:50:58.009Z,22.40
2017-08-26T03:53:30.580Z,23.30
2017-08-26T03:56:02.947Z,21.77
2017-08-26T03:58:35.474Z,22.97
2017-08-26T04:01:07.896Z,21.53
2017-08-26T04:03:40.253Z,21.30
2017-08-26T04:06:12.494Z,22.30
2017-08-26T04:08:44.952Z,22.70
2017-08-26T04:11:17.225Z,23.17
2017-08-26T04:13:49.766Z,22.10
2017-08-26T04:16:22.115Z,23.23
2017-08-26T04:18:54.506Z,22.37
2017-08-26T04:21:26.877Z,21.20
2017-08-26T04:23:59.315Z,21.77
2017-08-26T04:26:31.752Z,20.87
2017-08-26T04:29:03.984Z,19.07
2017-08-26T04:31:36.401Z,17.90
2017-08-26T04:34:08.672Z,19.00
2017-08-26T04:36:41.078Z,17.67
2017-08-26T04:39:13.794Z,18.00
2017-08-26T04:41:46.123Z,18.23
2017-08-26T04:44:18.349Z,17.30
2017-08-26T04:46:50.678Z,16.83
2017-08-26T04:49:22.889Z,17.57
2017-08-26T04:51:55.241Z,17.77
2017-08-26T04:54:27.829Z,16.87
2017-08-26T04:57:00.064Z,16.37
2017-08-26T04:59:32.266Z,19.03
2017-08-26T05:02:04.663Z,16.63
2017-08-26T05:04:37.244Z,17.20
2017-08-26T05:07:09.538Z,17.93
2017-08-26T05:09:42.196Z,17.50
2017-08-26T05:12:14.523Z,14.80
2017-08-26T05:14:47.181Z,15.50
2017-08-26T05:17:19.376Z,15.60
2017-08-26T05:19:51.775Z,22.70
2017-08-26T05:22:24.138Z,17.53
2017-08-26T05:24:56.581Z,17.87
2017-08-26T05:27:28.908Z,17.20
2017-08-26T05:30:01.355Z,17.87
2017-08-26T05:32:33.785Z,13.00
2017-08-26T05:35:06.486Z,13.80
2017-08-26T05:37:38.716Z,14.93
2017-08-26T05:40:11.234Z,14.67
2017-08-26T05:42:43.526Z,13.03
2017-08-26T05:45:15.988Z,11.40
2017-08-26T05:47:49.058Z,12.10
2017-08-26T05:50:21.955Z,12.20
2017-08-26T05:52:54.193Z,13.40
2017-08-26T05:55:26.804Z,14.60
2017-08-26T05:57:58.954Z,14.90
2017-08-26T06:00:31.540Z,14.10
2017-08-26T06:03:03.738Z,14.90
2017-08-26T06:05:36.190Z,13.03
2017-08-26T06:08:08.543Z,13.07
2017-08-26T06:10:40.978Z,11.53
2017-08-26T06:13:13.304Z,11.50
2017-08-26T06:15:46.111Z,10.87
2017-08-26T06:18:18.269Z,10.23
2017-08-26T06:20:50.863Z,11.17
2017-08-26T06:23:23.134Z,10.00
2017-08-26T06:25:55.788Z,8.73
2017-08-26T06:28:28.163Z,8.23
2017-08-26T06:31:00.638Z,8.53
2017-08-26T06:33:32.892Z,7.57
2017-08-26T06:36:05.690Z,8.80
2017-08-26T06:38:37.917Z,7.57
2017-08-26T06:41:10.633Z,7.17
2017-08-26T06:43:42.796Z,7.20
2017-08-26T06:46:15.589Z,6.60
2017-08-26T06:48:47.900Z,6.70
2017-08-26T06:51:20.285Z,6.73
2017-08-26T06:53:52.525Z,6.70
2017-08-26T06:56:25.210Z,6.50
2017-08-26T06:58:57.493Z,7.00
2017-08-26T07:01:31.005Z,6.30
2017-08-26T07:04:03.224Z,6.93
2017-08-26T07:06:35.821Z,6.67
2017-08-26T07:09:08.096Z,7.13
2017-08-26T07:11:40.724Z,5.47
2017-08-26T07:14:12.961Z,5.90
2017-08-26T07:16:45.661Z,5.93
2017-08-26T07:19:18.073Z,6.00
2017-08-26T07:21:50.573Z,6.30
2017-08-26T07:24:23.008Z,5.90
2017-08-26T07:26:55.433Z,6.57
2017-08-26T07:29:27.700Z,6.03
2017-08-26T07:32:00.443Z,5.90
2017-08-26T07:34:32.751Z,6.37
2017-08-26T07:37:05.137Z,5.90
2017-08-26T07:39:37.509Z,6.07
2017-08-26T07:42:09.986Z,6.10
2017-08-26T07:44:42.228Z,6.03
2017-08-26T07:47:14.631Z,5.27
2017-08-26T07:49:47.029Z,8.33
2017-08-26T07:52:19.376Z,8.73
2017-08-26T07:54:51.691Z,6.13
2017-08-26T07:57:23.998Z,6.10
2017-08-26T07:59:56.227Z,5.43
2017-08-26T08:02:28.665Z,5.80
2017-08-26T08:05:01.024Z,5.93
2017-08-26T08:07:33.350Z,6.10
2017-08-26T08:10:05.643Z,6.13
2017-08-26T08:12:38.068Z,5.73
2017-08-26T08:15:10.403Z,5.47
2017-08-26T08:17:42.707Z,5.07
2017-08-26T08:20:14.981Z,5.17
2017-08-26T08:22:47.365Z,5.70
2017-08-26T08:25:19.643Z,4.80
2017-08-26T08:27:52.214Z,5.40
2017-08-26T08:30:25.312Z,5.43
2017-08-26T08:32:57.769Z,4.50
2017-08-26T08:35:30.087Z,5.80
2017-08-26T08:38:02.403Z,5.50
2017-08-26T08:40:34.766Z,5.10
2017-08-26T08:43:07.231Z,4.60
2017-08-26T08:45:39.491Z,4.17
2017-08-26T08:48:11.915Z,5.47
2017-08-26T08:50:44.424Z,4.83
2017-08-26T08:53:16.720Z,5.40
2017-08-26T08:55:48.914Z,4.80
2017-08-26T08:58:22.237Z,5.83
2017-08-26T09:00:54.589Z,5.57
2017-08-26T09:03:26.994Z,4.23
2017-08-26T09:05:59.304Z,4.43
2017-08-26T09:08:31.781Z,4.63
2017-08-26T09:11:04.465Z,4.70
2017-08-26T09:13:36.795Z,4.83
2017-08-26T09:16:08.892Z,5.13
2017-08-26T09:18:41.023Z,5.47
2017-08-26T09:21:13.324Z,6.30
2017-08-26T09:23:45.478Z,6.20
2017-08-26T09:26:17.810Z,5.33
2017-08-26T09:28:50.240Z,4.20
2017-08-26T09:31:22.549Z,4.27
2017-08-26T09:33:58.665Z,4.87
2017-08-26T09:36:31.284Z,3.83
2017-08-26T09:39:03.654Z,4.90
2017-08-26T09:41:35.897Z,4.73
2017-08-26T09:44:08.258Z,4.70
2017-08-26T09:46:40.750Z,4.60
2017-08-26T09:49:12.891Z,3.97
2017-08-26T09:51:45.399Z,4.97
2017-08-26T09:54:17.804Z,5.80
2017-08-26T09:56:50.153Z,5.27
2017-08-26T09:59:22.586Z,6.37
2017-08-26T10:01:55.347Z,5.70
2017-08-26T10:04:27.684Z,5.20
2017-08-26T10:06:59.978Z,5.40
2017-08-26T10:09:32.323Z,5.77
2017-08-26T10:12:04.630Z,6.43
2017-08-26T10:14:37.154Z,5.47
2017-08-26T10:17:09.557Z,4.60
2017-08-26T10:19:41.931Z,5.90
2017-08-26T10:22:14.123Z,6.33
2017-08-26T10:24:46.591Z,6.00
2017-08-26T10:27:18.826Z,5.20
2017-08-26T10:29:51.078Z,5.30
2017-08-26T10:32:23.437Z,4.77
2017-08-26T10:34:55.713Z,4.90
2017-08-26T10:37:28.071Z,5.47
2017-08-26T10:40:00.431Z,5.40
2017-08-26T10:42:32.795Z,5.20
2017-08-26T10:45:05.290Z,6.27
2017-08-26T10:47:37.445Z,4.97
2017-08-26T10:50:09.777Z,7.30
2017-08-26T10:52:42.223Z,7.17
2017-08-26T10:55:14.493Z,6.50
2017-08-26T10:57:46.962Z,6.07
2017-08-26T11:00:19.361Z,6.10
2017-08-26T11:02:51.681Z,6.40
2017-08-26T11:05:23.945Z,6.33
2017-08-26T11:07:56.406Z,6.10
2017-08-26T11:10:28.766Z,5.87
2017-08-26T11:13:00.971Z,7.30
2017-08-26T11:15:34.411Z,6.90
2017-08-26T11:18:06.727Z,6.13
2017-08-26T11:20:39.068Z,6.43
2017-08-26T11:23:11.772Z,7.20
2017-08-26T11:25:44.258Z,7.43
2017-08-26T11:28:16.675Z,6.60
2017-08-26T11:30:49.371Z,6.70
2017-08-26T11:33:21.730Z,7.50
2017-08-26T11:35:54.495Z,9.37
2017-08-26T11:38:27.072Z,8.60
2017-08-26T11:41:00.673Z,7.57
2017-08-26T11:43:32.988Z,8.90
2017-08-26T11:46:06.709Z,8.53
2017-08-26T11:48:39.064Z,9.30
2017-08-26T11:51:11.771Z,10.10
2017-08-26T11:53:43.926Z,9.43
2017-08-26T11:56:16.671Z,9.43
2017-08-26T11:58:49.265Z,9.70
2017-08-26T12:01:22.051Z,10.10
2017-08-26T12:03:54.192Z,8.40
2017-08-26T12:06:26.752Z,9.10
2017-08-26T12:08:52.968Z,9.63
2017-08-26T12:11:19.170Z,16.80
2017-08-26T12:13:46.580Z,9.03
2017-08-26T12:16:12.750Z,9.30
2017-08-26T12:18:38.927Z,9.33
2017-08-26T12:21:05.558Z,8.97
2017-08-26T12:23:31.801Z,9.33
2017-08-26T12:25:57.969Z,8.70
2017-08-26T12:28:24.596Z,10.47
2017-08-26T12:30:50.779Z,10.90
2017-08-26T12:33:18.186Z,14.53
2017-08-26T12:35:44.694Z,10.27
2017-08-26T12:38:10.849Z,10.03
2017-08-26T12:40:39.160Z,10.60
2017-08-26T12:43:05.696Z,10.77
2017-08-26T12:45:31.939Z,10.50
2017-08-26T12:47:58.184Z,8.97
2017-08-26T12:50:25.808Z,9.37
2017-08-26T12:52:52.089Z,10.30
2017-08-26T12:55:18.277Z,11.53
2017-08-26T12:57:46.724Z,10.40
2017-08-26T13:00:13.272Z,11.80
2017-08-26T13:02:39.510Z,11.00
2017-08-26T13:05:06.153Z,11.43
2017-08-26T13:07:32.329Z,12.07
2017-08-26T13:09:58.486Z,11.00
2017-08-26T13:12:25.072Z,10.40
2017-08-26T13:14:51.275Z,10.30
2017-08-26T13:17:17.620Z,10.30
2017-08-26T13:19:44.097Z,11.30
2017-08-26T13:22:10.434Z,11.80
2017-08-26T13:24:37.069Z,11.50
2017-08-26T13:27:03.679Z,11.03
2017-08-26T13:29:31.180Z,11.10
2017-08-26T13:31:57.425Z,10.90
2017-08-26T13:34:24.078Z,12.77
2017-08-26T13:36:50.381Z,16.60
2017-08-26T13:39:16.685Z,11.63
2017-08-26T13:41:43.225Z,12.40
2017-08-26T13:44:10.089Z,12.20
2017-08-26T13:46:36.337Z,12.40
2017-08-26T13:49:03.169Z,12.63
2017-08-26T13:51:29.465Z,13.33
2017-08-26T13:53:55.685Z,12.07
2017-08-26T13:56:23.246Z,12.57
2017-08-26T13:58:52.698Z,13.10
2017-08-26T14:01:19.429Z,15.20
2017-08-26T14:03:46.291Z,11.30
2017-08-26T14:06:12.517Z,10.53
2017-08-26T14:08:38.734Z,12.90
2017-08-26T14:11:05.093Z,13.13
2017-08-26T14:13:31.369Z,11.37
2017-08-26T14:15:59.010Z,13.40
2017-08-26T14:18:25.366Z,11.23
2017-08-26T14:20:51.623Z,11.70
2017-08-26T14:23:20.341Z,13.30
2017-08-26T14:25:46.541Z,12.53
2017-08-26T14:28:12.886Z,13.40
2017-08-26T14:30:39.096Z,20.53
2017-08-26T14:33:05.489Z,14.50
2017-08-26T14:35:31.822Z,12.83
2017-08-26T14:37:58.045Z,14.97
2017-08-26T14:40:24.547Z,15.30
2017-08-26T14:42:50.712Z,12.97
2017-08-26T14:45:16.877Z,11.57
2017-08-26T14:47:43.358Z,16.70
2017-08-26T14:50:09.604Z,14.30
2017-08-26T14:52:35.760Z,15.10
2017-08-26T14:55:02.247Z,15.27
2017-08-26T14:57:28.520Z,17.13
2017-08-26T14:59:55.039Z,16.00
2017-08-26T15:02:21.682Z,15.90
2017-08-26T15:04:47.981Z,16.13
2017-08-26T15:07:14.209Z,15.73
2017-08-26T15:09:41.021Z,14.67
2017-08-26T15:12:07.204Z,16.33
2017-08-26T15:14:34.151Z,16.83
2017-08-26T15:17:01.089Z,15.80
2017-08-26T15:19:27.475Z,15.63
2017-08-26T15:21:53.684Z,16.00
2017-08-26T15:24:21.460Z,16.53
2017-08-26T15:26:47.623Z,16.87
2017-08-26T15:29:13.854Z,16.37
2017-08-26T15:31:40.085Z,17.50
2017-08-26T15:34:07.534Z,19.03
2017-08-26T15:36:33.665Z,17.70
2017-08-26T15:39:00.135Z,17.37
2017-08-26T15:41:26.375Z,17.37
2017-08-26T15:43:52.656Z,17.60
2017-08-26T15:46:18.806Z,17.90
2017-08-26T15:48:45.038Z,21.10
2017-08-26T15:51:11.412Z,20.47
2017-08-26T15:53:37.623Z,20.33
2017-08-26T15:56:03.826Z,20.03
2017-08-26T15:58:30.053Z,20.17
2017-08-26T16:00:56.359Z,19.00
2017-08-26T16:03:22.608Z,20.50
2017-08-26T16:05:48.865Z,19.17
2017-08-26T16:08:15.239Z,19.90
2017-08-26T16:10:41.489Z,20.57
2017-08-26T16:13:07.636Z,19.33
2017-08-26T16:15:33.890Z,20.07
2017-08-26T16:18:00.472Z,22.80
2017-08-26T16:20:26.576Z,23.23
2017-08-26T16:22:52.800Z,20.73
2017-08-26T16:25:19.086Z,21.53
2017-08-26T16:27:45.404Z,20.73
2017-08-26T16:30:11.779Z,19.50
2017-08-26T16:32:38.053Z,21.13
2017-08-26T16:35:04.236Z,20.57
2017-08-26T16:37:30.454Z,20.53
2017-08-26T16:39:56.679Z,21.30
2017-08-26T16:42:23.096Z,20.50
2017-08-26T16:44:49.398Z,21.80
2017-08-26T16:47:15.699Z,20.90
2017-08-26T16:49:42.114Z,22.30
2017-08-26T16:52:08.533Z,22.83
2017-08-26T16:54:34.900Z,21.30
2017-08-26T16:57:01.365Z,21.93
2017-08-26T16:59:28.006Z,21.57
2017-08-26T17:01:54.613Z,22.13
2017-08-26T17:04:22.060Z,22.87
2017-08-26T17:06:48.873Z,22.70
2017-08-26T17:09:15.298Z,21.10
2017-08-26T17:11:41.466Z,22.93
2017-08-26T17:14:07.972Z,23.03
2017-08-26T17:16:34.465Z,23.77
2017-08-26T17:19:00.620Z,20.97
2017-08-26T17:21:27.299Z,24.00
2017-08-26T17:23:53.490Z,22.57
2017-08-26T17:26:19.714Z,22.57
2017-08-26T17:28:46.362Z,23.50
2017-08-26T17:31:12.570Z,25.70
2017-08-26T17:33:38.812Z,23.63
2017-08-26T17:36:05.224Z,22.67
2017-08-26T17:38:31.478Z,23.00
2017-08-26T17:40:57.747Z,26.13
2017-08-26T17:43:24.225Z,23.73
2017-08-26T17:45:50.328Z,26.17
2017-08-26T17:48:16.590Z,24.77
2017-08-26T17:50:43.246Z,25.50
2017-08-26T17:53:16.445Z,24.70
2017-08-26T17:55:42.659Z,27.77
2017-08-26T17:58:08.927Z,25.50
2017-08-26T18:00:35.218Z,24.50
2017-08-26T18:03:01.578Z,25.80
2017-08-26T18:05:27.786Z,24.40
2017-08-26T18:07:53.968Z,25.70
2017-08-26T18:10:20.153Z,24.83
2017-08-26T18:12:46.370Z,24.60
2017-08-26T18:15:12.484Z,21.97
2017-08-26T18:17:38.898Z,22.97
2017-08-26T18:20:05.081Z,20.47
2017-08-26T18:22:31.517Z,22.00
2017-08-26T18:24:57.903Z,19.73
2017-08-26T18:27:24.645Z,19.67
2017-08-26T18:29:51.022Z,19.70
2017-08-26T18:32:17.264Z,22.67
2017-08-26T18:34:43.560Z,21.03
2017-08-26T18:37:09.791Z,25.20
2017-08-26T18:39:36.065Z,20.57
2017-08-26T18:42:02.232Z,20.60
2017-08-26T18:44:28.346Z,19.27
2017-08-26T18:46:54.634Z,20.30
2017-08-26T18:49:21.079Z,19.30
2017-08-26T18:51:47.313Z,18.10
2017-08-26T18:54:13.570Z,16.90
2017-08-26T18:56:39.741Z,18.10
2017-08-26T18:59:06.100Z,17.57
2017-08-26T19:01:32.521Z,20.47
2017-08-26T19:03:58.808Z,19.90
2017-08-26T19:06:24.967Z,19.03
2017-08-26T19:08:51.287Z,18.13
2017-08-26T19:11:17.500Z,19.37
2017-08-26T19:13:43.823Z,19.63
2017-08-26T19:16:10.178Z,20.20
2017-08-26T19:18:36.648Z,19.60
2017-08-26T19:21:02.931Z,19.90
2017-08-26T19:23:29.230Z,19.60
2017-08-26T19:25:56.396Z,20.47
2017-08-26T19:28:22.619Z,19.83
2017-08-26T19:30:48.824Z,20.10
2017-08-26T19:33:15.067Z,22.37
2017-08-26T19:35:41.310Z,22.00
2017-08-26T19:38:07.938Z,21.40
2017-08-26T19:40:34.219Z,22.93
2017-08-26T19:43:00.587Z,23.13
2017-08-26T19:45:27.043Z,32.90
2017-08-26T19:47:53.412Z,21.43
2017-08-26T19:50:19.740Z,23.47
2017-08-26T19:52:46.127Z,22.47
2017-08-26T19:55:12.478Z,22.13
2017-08-26T19:57:38.777Z,22.30
2017-08-26T20:00:04.987Z,30.33
2017-08-26T20:02:32.276Z,23.23
2017-08-26T20:04:59.943Z,32.70
2017-08-26T20:07:26.268Z,24.67
2017-08-26T20:09:52.688Z,24.17
2017-08-26T20:12:19.506Z,24.80
2017-08-26T20:14:52.030Z,25.33
2017-08-26T20:17:19.395Z,28.03
2017-08-26T20:19:45.930Z,26.63
2017-08-26T20:22:13.906Z,25.60
2017-08-26T20:24:40.343Z,26.67
2017-08-26T20:27:06.869Z,29.83
2017-08-26T20:29:33.887Z,26.17
2017-08-26T20:32:00.979Z,24.27
2017-08-26T20:34:27.386Z,27.00
2017-08-26T20:36:54.451Z,27.93
2017-08-26T20:39:20.878Z,27.77
2017-08-26T20:41:47.098Z,26.73
2017-08-26T20:44:13.470Z,27.00
2017-08-26T20:46:40.397Z,28.37
2017-08-26T20:49:06.853Z,32.60
2017-08-26T20:51:33.307Z,29.43
2017-08-26T20:53:59.942Z,29.97
2017-08-26T20:56:26.494Z,29.80
2017-08-26T20:58:53.047Z,30.60
2017-08-26T21:01:19.986Z,32.60
2017-08-26T21:03:46.784Z,31.00
2017-08-26T21:06:13.636Z,33.80
2017-08-26T21:08:42.227Z,32.23
2017-08-26T21:11:08.908Z,29.73
2017-08-26T21:13:35.475Z,31.73
2017-08-26T21:16:01.881Z,32.57
2017-08-26T21:18:28.848Z,32.53
2017-08-26T21:20:55.498Z,29.53
2017-08-26T21:23:21.986Z,31.33
2017-08-26T21:25:48.867Z,36.63
2017-08-26T21:28:16.328Z,30.30
2017-08-26T21:30:42.772Z,30.80
2017-08-26T21:33:10.226Z,38.63
2017-08-26T21:35:36.849Z,37.10
2017-08-26T21:38:04.573Z,29.10
2017-08-26T21:40:31.476Z,29.97
2017-08-26T21:42:57.942Z,25.57
2017-08-26T21:45:25.163Z,25.27
2017-08-26T21:47:52.051Z,26.77
2017-08-26T21:50:18.850Z,26.00
2017-08-26T21:52:46.585Z,27.13
2017-08-26T21:55:13.220Z,27.80
2017-08-26T21:57:46.827Z,28.43
2017-08-26T22:00:13.820Z,29.07
2017-08-26T22:02:41.797Z,30.17
2017-08-26T22:05:12.622Z,29.67
2017-08-26T22:07:38.975Z,30.47
2017-08-26T22:10:05.398Z,31.80
2017-08-26T22:12:36.369Z,34.23
2017-08-26T22:15:02.644Z,30.13
2017-08-26T22:17:29.105Z,33.37
2017-08-26T22:19:56.455Z,30.73
2017-08-26T22:22:22.790Z,31.93
2017-08-26T22:24:49.399Z,35.40
2017-08-26T22:27:16.057Z,32.23
2017-08-26T22:29:42.335Z,32.00
2017-08-26T22:32:09.280Z,42.27
2017-08-26T22:34:36.873Z,38.47
2017-08-26T22:37:03.222Z,36.00
2017-08-26T22:39:29.631Z,38.07
2017-08-26T22:41:55.866Z,35.17
2017-08-26T22:44:22.114Z,36.10
2017-08-26T22:46:48.526Z,34.03
2017-08-26T22:49:15.100Z,34.77
2017-08-26T22:51:41.516Z,34.43
2017-08-26T22:54:08.945Z,33.47
2017-08-26T22:56:35.607Z,36.43
2017-08-26T22:59:02.633Z,35.70
2017-08-26T23:01:29.025Z,35.70
2017-08-26T23:03:55.634Z,35.40
2017-08-26T23:06:21.895Z,33.87
2017-08-26T23:08:48.108Z,33.37
2017-08-26T23:11:14.701Z,34.40
2017-08-26T23:13:42.210Z,35.53
2017-08-26T23:16:08.889Z,36.10
2017-08-26T23:18:35.445Z,34.93
2017-08-26T23:21:02.084Z,34.43
2017-08-26T23:23:28.389Z,36.40
2017-08-26T23:25:54.932Z,36.10
2017-08-26T23:28:21.587Z,35.20
2017-08-26T23:30:48.483Z,34.00
2017-08-26T23:33:15.151Z,32.40
2017-08-26T23:35:41.533Z,34.30
2017-08-26T23:38:07.794Z,36.07
2017-08-26T23:40:34.474Z,33.70
2017-08-26T23:43:00.651Z,35.17
2017-08-26T23:45:26.931Z,33.50
2017-08-26T23:47:53.450Z,34.43
2017-08-26T23:50:19.645Z,36.30
2017-08-26T23:52:47.654Z,36.50
2017-08-26T23:55:14.192Z,37.10
2017-08-26T23:57:40.436Z,36.73
